sensor_id;sensor_type;location;lat;lon;timestamp;P1;durP1;ratioP1;P2;durP2;ratioP2
70126;SDS011;57491;42.694;23.314;2023-04-25T00:02:11;5.18;;;3.13;;
70126;SDS011;57491;42.694;23.314;2023-04-25T00:04:40;4.72;;;3.42;;
70126;SDS011;57491;42.694;23.314;2023-04-25T00:07:09;3.40;;;3.03;;
70126;SDS011;57491;42.694;23.314;2023-04-25T00:09:37;5.47;;;2.97;;
70126;SDS011;57491;42.694;23.314;2023-04-25T00:12:05;10.85;;;5.55;;
70126;SDS011;57491;42.694;23.314;2023-04-25T00:14:33;5.65;;;3.47;;
70126;SDS011;57491;42.694;23.314;2023-04-25T00:17:05;4.75;;;3.53;;
70126;SDS011;57491;42.694;23.314;2023-04-25T00:19:33;4.88;;;3.78;;
70126;SDS011;57491;42.694;23.314;2023-04-25T00:24:28;4.68;;;3.38;;
70126;SDS011;57491;42.694;23.314;2023-04-25T00:26:56;5.60;;;3.53;;
70126;SDS011;57491;42.694;23.314;2023-04-25T00:29:24;4.90;;;4.32;;
70126;SDS011;57491;42.694;23.314;2023-04-25T00:31:54;4.13;;;3.72;;
70126;SDS011;57491;42.694;23.314;2023-04-25T00:34:27;6.07;;;4.05;;
70126;SDS011;57491;42.694;23.314;2023-04-25T00:36:54;6.13;;;4.07;;
70126;SDS011;57491;42.694;23.314;2023-04-25T00:39:30;5.20;;;4.00;;
70126;SDS011;57491;42.694;23.314;2023-04-25T00:41:58;5.72;;;4.30;;
70126;SDS011;57491;42.694;23.314;2023-04-25T00:44:29;6.05;;;3.88;;
70126;SDS011;57491;42.694;23.314;2023-04-25T00:46:59;6.70;;;4.05;;
70126;SDS011;57491;42.694;23.314;2023-04-25T00:49:35;7.45;;;4.22;;
70126;SDS011;57491;42.694;23.314;2023-04-25T00:52:06;5.65;;;4.55;;
70126;SDS011;57491;42.694;23.314;2023-04-25T00:57:01;5.27;;;4.33;;
70126;SDS011;57491;42.694;23.314;2023-04-25T00:59:29;5.20;;;4.15;;
70126;SDS011;57491;42.694;23.314;2023-04-25T01:06:55;7.72;;;5.57;;
70126;SDS011;57491;42.694;23.314;2023-04-25T01:09:23;6.47;;;5.00;;
70126;SDS011;57491;42.694;23.314;2023-04-25T01:11:54;8.25;;;5.68;;
70126;SDS011;57491;42.694;23.314;2023-04-25T01:14:23;6.85;;;4.97;;
70126;SDS011;57491;42.694;23.314;2023-04-25T01:16:50;8.45;;;5.53;;
70126;SDS011;57491;42.694;23.314;2023-04-25T01:19:24;6.07;;;4.85;;
70126;SDS011;57491;42.694;23.314;2023-04-25T01:21:54;7.40;;;5.05;;
70126;SDS011;57491;42.694;23.314;2023-04-25T01:24:21;5.40;;;4.15;;
70126;SDS011;57491;42.694;23.314;2023-04-25T01:27:00;6.38;;;4.68;;
70126;SDS011;57491;42.694;23.314;2023-04-25T01:29:28;5.72;;;4.38;;
70126;SDS011;57491;42.694;23.314;2023-04-25T01:31:57;6.53;;;4.30;;
70126;SDS011;57491;42.694;23.314;2023-04-25T01:34:26;5.05;;;3.88;;
70126;SDS011;57491;42.694;23.314;2023-04-25T01:36:55;5.82;;;4.68;;
70126;SDS011;57491;42.694;23.314;2023-04-25T01:39:23;6.30;;;4.53;;
70126;SDS011;57491;42.694;23.314;2023-04-25T01:41:52;4.82;;;4.15;;
70126;SDS011;57491;42.694;23.314;2023-04-25T01:44:19;6.90;;;4.75;;
70126;SDS011;57491;42.694;23.314;2023-04-25T01:46:47;5.78;;;4.80;;
70126;SDS011;57491;42.694;23.314;2023-04-25T01:49:17;5.88;;;4.30;;
70126;SDS011;57491;42.694;23.314;2023-04-25T01:51:45;6.70;;;4.15;;
70126;SDS011;57491;42.694;23.314;2023-04-25T01:56:41;6.82;;;3.58;;
70126;SDS011;57491;42.694;23.314;2023-04-25T01:59:12;5.28;;;3.75;;
70126;SDS011;57491;42.694;23.314;2023-04-25T02:01:39;5.88;;;3.78;;
70126;SDS011;57491;42.694;23.314;2023-04-25T02:04:07;4.53;;;3.50;;
70126;SDS011;57491;42.694;23.314;2023-04-25T02:06:34;8.88;;;4.03;;
70126;SDS011;57491;42.694;23.314;2023-04-25T02:09:02;5.80;;;3.60;;
70126;SDS011;57491;42.694;23.314;2023-04-25T02:11:33;6.18;;;4.00;;
70126;SDS011;57491;42.694;23.314;2023-04-25T02:14:01;5.15;;;3.88;;
70126;SDS011;57491;42.694;23.314;2023-04-25T02:16:29;4.68;;;3.55;;
70126;SDS011;57491;42.694;23.314;2023-04-25T02:18:56;4.07;;;3.22;;
70126;SDS011;57491;42.694;23.314;2023-04-25T02:21:24;4.45;;;3.20;;
70126;SDS011;57491;42.694;23.314;2023-04-25T02:23:52;4.68;;;3.35;;
70126;SDS011;57491;42.694;23.314;2023-04-25T02:26:19;5.68;;;3.05;;
70126;SDS011;57491;42.694;23.314;2023-04-25T02:28:50;3.40;;;3.10;;
70126;SDS011;57491;42.694;23.314;2023-04-25T02:31:18;6.22;;;3.50;;
70126;SDS011;57491;42.694;23.314;2023-04-25T02:33:45;5.60;;;3.42;;
70126;SDS011;57491;42.694;23.314;2023-04-25T02:36:13;4.95;;;3.53;;
70126;SDS011;57491;42.694;23.314;2023-04-25T02:38:41;5.35;;;3.30;;
70126;SDS011;57491;42.694;23.314;2023-04-25T02:41:08;4.88;;;3.30;;
70126;SDS011;57491;42.694;23.314;2023-04-25T02:43:36;4.72;;;3.30;;
70126;SDS011;57491;42.694;23.314;2023-04-25T02:46:05;5.13;;;3.70;;
70126;SDS011;57491;42.694;23.314;2023-04-25T02:48:33;4.40;;;3.42;;
70126;SDS011;57491;42.694;23.314;2023-04-25T02:51:04;6.03;;;4.07;;
70126;SDS011;57491;42.694;23.314;2023-04-25T02:53:31;6.07;;;4.80;;
70126;SDS011;57491;42.694;23.314;2023-04-25T02:55:59;4.97;;;3.90;;
70126;SDS011;57491;42.694;23.314;2023-04-25T02:58:26;5.10;;;3.90;;
70126;SDS011;57491;42.694;23.314;2023-04-25T03:03:22;6.03;;;4.10;;
70126;SDS011;57491;42.694;23.314;2023-04-25T03:05:51;5.57;;;4.22;;
70126;SDS011;57491;42.694;23.314;2023-04-25T03:08:18;5.50;;;3.85;;
70126;SDS011;57491;42.694;23.314;2023-04-25T03:10:45;4.97;;;3.72;;
70126;SDS011;57491;42.694;23.314;2023-04-25T03:13:17;5.57;;;4.03;;
70126;SDS011;57491;42.694;23.314;2023-04-25T03:15:45;5.88;;;4.93;;
70126;SDS011;57491;42.694;23.314;2023-04-25T03:18:12;6.05;;;4.43;;
70126;SDS011;57491;42.694;23.314;2023-04-25T03:20:41;5.38;;;4.53;;
70126;SDS011;57491;42.694;23.314;2023-04-25T03:23:08;5.63;;;4.18;;
70126;SDS011;57491;42.694;23.314;2023-04-25T03:25:36;7.88;;;3.90;;
70126;SDS011;57491;42.694;23.314;2023-04-25T03:28:03;5.75;;;4.03;;
70126;SDS011;57491;42.694;23.314;2023-04-25T03:30:31;4.57;;;3.88;;
70126;SDS011;57491;42.694;23.314;2023-04-25T03:32:58;7.78;;;4.43;;
70126;SDS011;57491;42.694;23.314;2023-04-25T03:35:28;5.28;;;4.00;;
70126;SDS011;57491;42.694;23.314;2023-04-25T03:37:57;6.13;;;4.82;;
70126;SDS011;57491;42.694;23.314;2023-04-25T03:40:25;5.18;;;3.85;;
70126;SDS011;57491;42.694;23.314;2023-04-25T03:42:52;6.45;;;4.43;;
70126;SDS011;57491;42.694;23.314;2023-04-25T03:45:20;6.65;;;4.20;;
70126;SDS011;57491;42.694;23.314;2023-04-25T03:47:47;6.38;;;4.75;;
70126;SDS011;57491;42.694;23.314;2023-04-25T03:52:42;5.77;;;3.93;;
70126;SDS011;57491;42.694;23.314;2023-04-25T03:55:11;6.50;;;5.15;;
70126;SDS011;57491;42.694;23.314;2023-04-25T03:57:39;5.55;;;4.40;;
70126;SDS011;57491;42.694;23.314;2023-04-25T04:00:07;6.53;;;4.87;;
70126;SDS011;57491;42.694;23.314;2023-04-25T04:02:35;7.75;;;5.35;;
70126;SDS011;57491;42.694;23.314;2023-04-25T04:05:03;6.85;;;4.80;;
70126;SDS011;57491;42.694;23.314;2023-04-25T04:07:31;8.80;;;6.93;;
70126;SDS011;57491;42.694;23.314;2023-04-25T04:10:01;9.13;;;5.28;;
70126;SDS011;57491;42.694;23.314;2023-04-25T04:12:32;7.88;;;5.53;;
70126;SDS011;57491;42.694;23.314;2023-04-25T04:14:59;7.97;;;5.45;;
70126;SDS011;57491;42.694;23.314;2023-04-25T04:17:28;8.48;;;5.93;;
70126;SDS011;57491;42.694;23.314;2023-04-25T04:19:56;7.60;;;5.90;;
70126;SDS011;57491;42.694;23.314;2023-04-25T04:22:23;6.95;;;5.55;;
70126;SDS011;57491;42.694;23.314;2023-04-25T04:24:51;7.68;;;6.38;;
70126;SDS011;57491;42.694;23.314;2023-04-25T04:27:19;10.00;;;5.25;;
70126;SDS011;57491;42.694;23.314;2023-04-25T04:29:49;6.85;;;5.60;;
70126;SDS011;57491;42.694;23.314;2023-04-25T04:32:18;7.47;;;5.57;;
70126;SDS011;57491;42.694;23.314;2023-04-25T04:34:46;8.90;;;7.07;;
70126;SDS011;57491;42.694;23.314;2023-04-25T04:37:14;10.75;;;7.22;;
70126;SDS011;57491;42.694;23.314;2023-04-25T04:39:41;9.27;;;6.43;;
70126;SDS011;57491;42.694;23.314;2023-04-25T04:42:08;9.37;;;7.07;;
70126;SDS011;57491;42.694;23.314;2023-04-25T04:44:36;8.77;;;6.80;;
70126;SDS011;57491;42.694;23.314;2023-04-25T04:47:06;10.57;;;7.80;;
70126;SDS011;57491;42.694;23.314;2023-04-25T04:49:33;9.68;;;7.47;;
70126;SDS011;57491;42.694;23.314;2023-04-25T04:52:04;12.60;;;7.35;;
70126;SDS011;57491;42.694;23.314;2023-04-25T04:54:31;11.15;;;7.13;;
70126;SDS011;57491;42.694;23.314;2023-04-25T04:57:00;10.07;;;7.10;;
70126;SDS011;57491;42.694;23.314;2023-04-25T04:59:28;9.45;;;8.27;;
70126;SDS011;57491;42.694;23.314;2023-04-25T05:01:55;11.52;;;7.38;;
70126;SDS011;57491;42.694;23.314;2023-04-25T05:04:24;9.95;;;7.25;;
70126;SDS011;57491;42.694;23.314;2023-04-25T05:06:51;10.80;;;8.45;;
70126;SDS011;57491;42.694;23.314;2023-04-25T05:09:19;11.55;;;7.68;;
70126;SDS011;57491;42.694;23.314;2023-04-25T05:11:46;12.63;;;8.68;;
70126;SDS011;57491;42.694;23.314;2023-04-25T05:14:13;12.97;;;9.90;;
70126;SDS011;57491;42.694;23.314;2023-04-25T05:16:40;10.98;;;8.07;;
70126;SDS011;57491;42.694;23.314;2023-04-25T05:19:09;12.55;;;9.80;;
70126;SDS011;57491;42.694;23.314;2023-04-25T05:21:37;15.27;;;10.65;;
70126;SDS011;57491;42.694;23.314;2023-04-25T05:24:05;14.32;;;10.20;;
70126;SDS011;57491;42.694;23.314;2023-04-25T05:26:32;16.52;;;10.52;;
70126;SDS011;57491;42.694;23.314;2023-04-25T05:28:59;15.98;;;10.40;;
70126;SDS011;57491;42.694;23.314;2023-04-25T05:31:27;13.38;;;9.50;;
70126;SDS011;57491;42.694;23.314;2023-04-25T05:33:54;12.40;;;9.23;;
70126;SDS011;57491;42.694;23.314;2023-04-25T05:36:21;14.52;;;10.23;;
70126;SDS011;57491;42.694;23.314;2023-04-25T05:38:50;14.52;;;8.88;;
70126;SDS011;57491;42.694;23.314;2023-04-25T05:41:17;13.52;;;8.45;;
70126;SDS011;57491;42.694;23.314;2023-04-25T05:43:46;13.48;;;8.30;;
70126;SDS011;57491;42.694;23.314;2023-04-25T05:46:14;12.18;;;8.63;;
70126;SDS011;57491;42.694;23.314;2023-04-25T05:48:42;16.92;;;9.35;;
70126;SDS011;57491;42.694;23.314;2023-04-25T05:51:09;12.00;;;7.57;;
70126;SDS011;57491;42.694;23.314;2023-04-25T05:53:37;11.15;;;8.20;;
70126;SDS011;57491;42.694;23.314;2023-04-25T05:56:05;12.33;;;7.87;;
70126;SDS011;57491;42.694;23.314;2023-04-25T05:58:33;10.30;;;8.18;;
70126;SDS011;57491;42.694;23.314;2023-04-25T06:01:01;10.65;;;7.43;;
70126;SDS011;57491;42.694;23.314;2023-04-25T06:03:29;9.40;;;7.05;;
70126;SDS011;57491;42.694;23.314;2023-04-25T06:05:56;11.15;;;9.38;;
70126;SDS011;57491;42.694;23.314;2023-04-25T06:08:24;16.37;;;10.90;;
70126;SDS011;57491;42.694;23.314;2023-04-25T06:10:51;19.83;;;10.02;;
70126;SDS011;57491;42.694;23.314;2023-04-25T06:13:19;16.60;;;10.87;;
70126;SDS011;57491;42.694;23.314;2023-04-25T06:15:47;19.15;;;10.82;;
70126;SDS011;57491;42.694;23.314;2023-04-25T06:18:14;12.80;;;9.10;;
70126;SDS011;57491;42.694;23.314;2023-04-25T06:20:41;13.38;;;8.15;;
70126;SDS011;57491;42.694;23.314;2023-04-25T06:23:09;11.82;;;7.18;;
70126;SDS011;57491;42.694;23.314;2023-04-25T06:25:36;8.40;;;6.45;;
70126;SDS011;57491;42.694;23.314;2023-04-25T06:28:03;8.10;;;6.73;;
70126;SDS011;57491;42.694;23.314;2023-04-25T06:30:32;10.30;;;6.53;;
70126;SDS011;57491;42.694;23.314;2023-04-25T06:33:01;9.80;;;7.32;;
70126;SDS011;57491;42.694;23.314;2023-04-25T06:35:31;9.00;;;5.78;;
70126;SDS011;57491;42.694;23.314;2023-04-25T06:37:59;7.65;;;6.10;;
70126;SDS011;57491;42.694;23.314;2023-04-25T06:40:26;10.02;;;6.00;;
70126;SDS011;57491;42.694;23.314;2023-04-25T06:42:53;12.65;;;6.53;;
70126;SDS011;57491;42.694;23.314;2023-04-25T06:45:20;13.85;;;6.50;;
70126;SDS011;57491;42.694;23.314;2023-04-25T06:47:49;6.18;;;4.90;;
70126;SDS011;57491;42.694;23.314;2023-04-25T06:50:17;6.22;;;4.72;;
70126;SDS011;57491;42.694;23.314;2023-04-25T06:52:44;11.20;;;6.72;;
70126;SDS011;57491;42.694;23.314;2023-04-25T06:55:11;8.02;;;5.45;;
70126;SDS011;57491;42.694;23.314;2023-04-25T06:57:38;14.10;;;5.75;;
70126;SDS011;57491;42.694;23.314;2023-04-25T07:00:06;8.27;;;5.30;;
70126;SDS011;57491;42.694;23.314;2023-04-25T07:02:35;10.13;;;5.80;;
70126;SDS011;57491;42.694;23.314;2023-04-25T07:05:03;9.93;;;6.22;;
70126;SDS011;57491;42.694;23.314;2023-04-25T07:07:31;9.63;;;6.07;;
70126;SDS011;57491;42.694;23.314;2023-04-25T07:09:58;8.87;;;7.60;;
70126;SDS011;57491;42.694;23.314;2023-04-25T07:12:25;10.13;;;7.60;;
70126;SDS011;57491;42.694;23.314;2023-04-25T07:14:53;12.63;;;7.00;;
70126;SDS011;57491;42.694;23.314;2023-04-25T07:17:21;10.95;;;7.57;;
70126;SDS011;57491;42.694;23.314;2023-04-25T07:19:48;12.27;;;8.82;;
70126;SDS011;57491;42.694;23.314;2023-04-25T07:22:16;14.30;;;8.10;;
70126;SDS011;57491;42.694;23.314;2023-04-25T07:24:43;10.93;;;7.32;;
70126;SDS011;57491;42.694;23.314;2023-04-25T07:27:14;10.75;;;7.43;;
70126;SDS011;57491;42.694;23.314;2023-04-25T07:29:41;16.63;;;10.25;;
70126;SDS011;57491;42.694;23.314;2023-04-25T07:32:08;18.20;;;9.60;;
70126;SDS011;57491;42.694;23.314;2023-04-25T07:34:36;11.80;;;8.25;;
70126;SDS011;57491;42.694;23.314;2023-04-25T07:37:04;18.25;;;12.82;;
70126;SDS011;57491;42.694;23.314;2023-04-25T07:39:33;17.58;;;11.20;;
70126;SDS011;57491;42.694;23.314;2023-04-25T07:42:00;15.18;;;9.25;;
70126;SDS011;57491;42.694;23.314;2023-04-25T07:44:29;17.40;;;11.40;;
70126;SDS011;57491;42.694;23.314;2023-04-25T07:46:56;19.48;;;12.10;;
70126;SDS011;57491;42.694;23.314;2023-04-25T07:49:26;16.73;;;12.05;;
70126;SDS011;57491;42.694;23.314;2023-04-25T07:51:54;19.77;;;13.18;;
70126;SDS011;57491;42.694;23.314;2023-04-25T07:54:21;20.70;;;14.03;;
70126;SDS011;57491;42.694;23.314;2023-04-25T07:56:49;15.80;;;8.20;;
70126;SDS011;57491;42.694;23.314;2023-04-25T07:59:18;17.67;;;10.18;;
70126;SDS011;57491;42.694;23.314;2023-04-25T08:01:45;11.55;;;7.88;;
70126;SDS011;57491;42.694;23.314;2023-04-25T08:04:12;16.38;;;8.13;;
70126;SDS011;57491;42.694;23.314;2023-04-25T08:06:39;11.18;;;6.82;;
70126;SDS011;57491;42.694;23.314;2023-04-25T08:09:07;16.17;;;7.40;;
70126;SDS011;57491;42.694;23.314;2023-04-25T08:11:35;13.48;;;7.95;;
70126;SDS011;57491;42.694;23.314;2023-04-25T08:14:04;17.45;;;7.85;;
70126;SDS011;57491;42.694;23.314;2023-04-25T08:16:32;10.38;;;6.95;;
70126;SDS011;57491;42.694;23.314;2023-04-25T08:18:59;10.60;;;6.50;;
70126;SDS011;57491;42.694;23.314;2023-04-25T08:21:26;8.15;;;5.32;;
70126;SDS011;57491;42.694;23.314;2023-04-25T08:23:54;8.10;;;6.38;;
70126;SDS011;57491;42.694;23.314;2023-04-25T08:26:22;9.35;;;5.28;;
70126;SDS011;57491;42.694;23.314;2023-04-25T08:28:52;7.85;;;5.97;;
70126;SDS011;57491;42.694;23.314;2023-04-25T08:31:20;8.65;;;5.75;;
70126;SDS011;57491;42.694;23.314;2023-04-25T08:33:48;5.95;;;5.30;;
70126;SDS011;57491;42.694;23.314;2023-04-25T08:36:17;7.55;;;5.57;;
70126;SDS011;57491;42.694;23.314;2023-04-25T08:38:44;12.32;;;7.65;;
70126;SDS011;57491;42.694;23.314;2023-04-25T08:41:11;10.00;;;5.43;;
70126;SDS011;57491;42.694;23.314;2023-04-25T08:43:39;7.30;;;4.50;;
70126;SDS011;57491;42.694;23.314;2023-04-25T08:46:08;9.32;;;7.57;;
70126;SDS011;57491;42.694;23.314;2023-04-25T08:48:39;10.45;;;7.07;;
70126;SDS011;57491;42.694;23.314;2023-04-25T08:51:09;9.40;;;7.10;;
70126;SDS011;57491;42.694;23.314;2023-04-25T08:53:40;8.85;;;6.57;;
70126;SDS011;57491;42.694;23.314;2023-04-25T08:58:36;6.25;;;3.85;;
70126;SDS011;57491;42.694;23.314;2023-04-25T09:01:03;16.95;;;6.72;;
70126;SDS011;57491;42.694;23.314;2023-04-25T09:03:31;9.82;;;5.88;;
70126;SDS011;57491;42.694;23.314;2023-04-25T09:06:00;10.15;;;5.10;;
70126;SDS011;57491;42.694;23.314;2023-04-25T09:08:27;8.35;;;4.68;;
70126;SDS011;57491;42.694;23.314;2023-04-25T09:13:26;8.60;;;3.95;;
70126;SDS011;57491;42.694;23.314;2023-04-25T09:15:54;7.05;;;5.13;;
70126;SDS011;57491;42.694;23.314;2023-04-25T09:18:23;10.90;;;5.22;;
70126;SDS011;57491;42.694;23.314;2023-04-25T09:20:54;10.52;;;6.75;;
70126;SDS011;57491;42.694;23.314;2023-04-25T09:23:23;8.93;;;6.80;;
70126;SDS011;57491;42.694;23.314;2023-04-25T09:25:52;20.80;;;10.88;;
70126;SDS011;57491;42.694;23.314;2023-04-25T09:28:23;14.63;;;8.32;;
70126;SDS011;57491;42.694;23.314;2023-04-25T09:30:54;13.52;;;7.35;;
70126;SDS011;57491;42.694;23.314;2023-04-25T09:33:26;9.82;;;7.82;;
70126;SDS011;57491;42.694;23.314;2023-04-25T09:36:01;11.57;;;7.03;;
70126;SDS011;57491;42.694;23.314;2023-04-25T09:38:31;9.10;;;5.43;;
70126;SDS011;57491;42.694;23.314;2023-04-25T09:40:59;14.23;;;8.85;;
70126;SDS011;57491;42.694;23.314;2023-04-25T09:43:27;9.57;;;6.30;;
70126;SDS011;57491;42.694;23.314;2023-04-25T09:45:58;9.60;;;6.25;;
70126;SDS011;57491;42.694;23.314;2023-04-25T09:48:27;8.88;;;6.25;;
70126;SDS011;57491;42.694;23.314;2023-04-25T09:51:05;9.98;;;5.53;;
70126;SDS011;57491;42.694;23.314;2023-04-25T09:53:35;3.58;;;3.05;;
70126;SDS011;57491;42.694;23.314;2023-04-25T09:56:03;9.27;;;6.70;;
70126;SDS011;57491;42.694;23.314;2023-04-25T09:58:32;9.73;;;5.30;;
70126;SDS011;57491;42.694;23.314;2023-04-25T10:01:00;9.88;;;5.90;;
70126;SDS011;57491;42.694;23.314;2023-04-25T10:03:29;9.95;;;5.00;;
70126;SDS011;57491;42.694;23.314;2023-04-25T10:05:57;6.68;;;4.35;;
70126;SDS011;57491;42.694;23.314;2023-04-25T10:08:29;6.70;;;4.03;;
70126;SDS011;57491;42.694;23.314;2023-04-25T10:11:02;5.13;;;4.43;;
70126;SDS011;57491;42.694;23.314;2023-04-25T10:13:31;7.70;;;4.53;;
70126;SDS011;57491;42.694;23.314;2023-04-25T10:15:59;7.13;;;3.70;;
70126;SDS011;57491;42.694;23.314;2023-04-25T10:18:31;4.78;;;3.13;;
70126;SDS011;57491;42.694;23.314;2023-04-25T10:20:59;9.85;;;4.78;;
70126;SDS011;57491;42.694;23.314;2023-04-25T10:23:29;4.80;;;2.20;;
70126;SDS011;57491;42.694;23.314;2023-04-25T10:25:57;4.90;;;3.47;;
70126;SDS011;57491;42.694;23.314;2023-04-25T10:28:27;2.97;;;1.20;;
70126;SDS011;57491;42.694;23.314;2023-04-25T10:30:58;3.80;;;1.20;;
70126;SDS011;57491;42.694;23.314;2023-04-25T10:33:35;3.63;;;1.23;;
70126;SDS011;57491;42.694;23.314;2023-04-25T10:36:10;7.57;;;1.80;;
70126;SDS011;57491;42.694;23.314;2023-04-25T10:38:38;2.58;;;1.88;;
70126;SDS011;57491;42.694;23.314;2023-04-25T10:41:06;4.38;;;1.52;;
70126;SDS011;57491;42.694;23.314;2023-04-25T10:43:37;4.85;;;2.28;;
70126;SDS011;57491;42.694;23.314;2023-04-25T10:48:52;3.65;;;1.50;;
70126;SDS011;57491;42.694;23.314;2023-04-25T10:51:21;7.38;;;2.00;;
70126;SDS011;57491;42.694;23.314;2023-04-25T10:53:59;3.35;;;1.73;;
70126;SDS011;57491;42.694;23.314;2023-04-25T10:56:27;8.35;;;2.55;;
70126;SDS011;57491;42.694;23.314;2023-04-25T10:59:04;4.28;;;1.63;;
70126;SDS011;57491;42.694;23.314;2023-04-25T11:01:37;4.30;;;2.40;;
70126;SDS011;57491;42.694;23.314;2023-04-25T11:04:05;4.88;;;1.95;;
70126;SDS011;57491;42.694;23.314;2023-04-25T11:09:08;6.15;;;1.58;;
70126;SDS011;57491;42.694;23.314;2023-04-25T11:11:39;2.45;;;1.23;;
70126;SDS011;57491;42.694;23.314;2023-04-25T11:14:08;4.32;;;1.40;;
70126;SDS011;57491;42.694;23.314;2023-04-25T11:16:35;4.22;;;1.50;;
70126;SDS011;57491;42.694;23.314;2023-04-25T11:19:02;4.00;;;1.40;;
70126;SDS011;57491;42.694;23.314;2023-04-25T11:21:30;2.65;;;1.60;;
70126;SDS011;57491;42.694;23.314;2023-04-25T11:23:58;2.40;;;1.20;;
70126;SDS011;57491;42.694;23.314;2023-04-25T11:26:26;4.45;;;1.70;;
70126;SDS011;57491;42.694;23.314;2023-04-25T11:28:56;4.97;;;2.00;;
70126;SDS011;57491;42.694;23.314;2023-04-25T11:31:26;5.10;;;2.05;;
70126;SDS011;57491;42.694;23.314;2023-04-25T11:33:54;3.45;;;1.50;;
70126;SDS011;57491;42.694;23.314;2023-04-25T11:36:24;4.00;;;1.50;;
70126;SDS011;57491;42.694;23.314;2023-04-25T11:38:52;4.53;;;1.90;;
70126;SDS011;57491;42.694;23.314;2023-04-25T11:41:20;3.60;;;1.50;;
70126;SDS011;57491;42.694;23.314;2023-04-25T11:43:50;3.22;;;1.35;;
70126;SDS011;57491;42.694;23.314;2023-04-25T11:46:19;1.83;;;1.20;;
70126;SDS011;57491;42.694;23.314;2023-04-25T11:48:48;2.35;;;1.48;;
70126;SDS011;57491;42.694;23.314;2023-04-25T11:51:15;1.35;;;1.10;;
70126;SDS011;57491;42.694;23.314;2023-04-25T11:53:44;2.65;;;1.45;;
70126;SDS011;57491;42.694;23.314;2023-04-25T11:56:11;2.80;;;2.50;;
70126;SDS011;57491;42.694;23.314;2023-04-25T12:01:25;1.40;;;1.02;;
70126;SDS011;57491;42.694;23.314;2023-04-25T12:03:54;2.10;;;1.23;;
70126;SDS011;57491;42.694;23.314;2023-04-25T12:06:25;1.92;;;1.02;;
70126;SDS011;57491;42.694;23.314;2023-04-25T12:09:00;2.85;;;1.20;;
70126;SDS011;57491;42.694;23.314;2023-04-25T12:11:29;1.90;;;1.40;;
70126;SDS011;57491;42.694;23.314;2023-04-25T12:14:01;2.88;;;1.10;;
70126;SDS011;57491;42.694;23.314;2023-04-25T12:16:39;1.92;;;1.10;;
70126;SDS011;57491;42.694;23.314;2023-04-25T12:19:09;4.25;;;1.70;;
70126;SDS011;57491;42.694;23.314;2023-04-25T12:21:37;3.15;;;2.58;;
70126;SDS011;57491;42.694;23.314;2023-04-25T12:24:10;1.90;;;1.30;;
70126;SDS011;57491;42.694;23.314;2023-04-25T12:26:48;2.97;;;1.50;;
70126;SDS011;57491;42.694;23.314;2023-04-25T12:29:17;3.22;;;1.42;;
70126;SDS011;57491;42.694;23.314;2023-04-25T12:31:46;3.03;;;1.65;;
70126;SDS011;57491;42.694;23.314;2023-04-25T12:34:15;7.45;;;1.88;;
70126;SDS011;57491;42.694;23.314;2023-04-25T12:36:42;6.47;;;1.98;;
70126;SDS011;57491;42.694;23.314;2023-04-25T12:39:13;6.93;;;2.65;;
70126;SDS011;57491;42.694;23.314;2023-04-25T12:41:41;6.78;;;2.20;;
70126;SDS011;57491;42.694;23.314;2023-04-25T12:44:08;5.30;;;1.60;;
70126;SDS011;57491;42.694;23.314;2023-04-25T12:46:35;3.33;;;1.73;;
70126;SDS011;57491;42.694;23.314;2023-04-25T12:49:03;3.13;;;1.33;;
70126;SDS011;57491;42.694;23.314;2023-04-25T12:51:33;4.05;;;1.75;;
70126;SDS011;57491;42.694;23.314;2023-04-25T12:54:00;4.15;;;1.80;;
70126;SDS011;57491;42.694;23.314;2023-04-25T12:56:28;4.75;;;1.85;;
70126;SDS011;57491;42.694;23.314;2023-04-25T12:58:55;3.38;;;1.85;;
70126;SDS011;57491;42.694;23.314;2023-04-25T13:01:22;4.70;;;1.70;;
70126;SDS011;57491;42.694;23.314;2023-04-25T13:03:50;3.35;;;2.00;;
70126;SDS011;57491;42.694;23.314;2023-04-25T13:08:46;2.75;;;1.55;;
70126;SDS011;57491;42.694;23.314;2023-04-25T13:11:14;3.08;;;1.60;;
70126;SDS011;57491;42.694;23.314;2023-04-25T13:13:41;3.90;;;1.83;;
70126;SDS011;57491;42.694;23.314;2023-04-25T13:16:09;6.07;;;2.83;;
70126;SDS011;57491;42.694;23.314;2023-04-25T13:18:36;3.88;;;2.58;;
70126;SDS011;57491;42.694;23.314;2023-04-25T13:21:03;4.38;;;2.50;;
70126;SDS011;57491;42.694;23.314;2023-04-25T13:23:30;6.33;;;3.83;;
70126;SDS011;57491;42.694;23.314;2023-04-25T13:26:01;6.32;;;3.40;;
70126;SDS011;57491;42.694;23.314;2023-04-25T13:28:28;4.43;;;2.83;;
70126;SDS011;57491;42.694;23.314;2023-04-25T13:30:55;4.57;;;2.40;;
70126;SDS011;57491;42.694;23.314;2023-04-25T13:33:23;7.78;;;3.10;;
70126;SDS011;57491;42.694;23.314;2023-04-25T13:35:51;2.97;;;1.90;;
70126;SDS011;57491;42.694;23.314;2023-04-25T13:38:21;4.22;;;2.75;;
70126;SDS011;57491;42.694;23.314;2023-04-25T13:40:48;4.45;;;2.58;;
70126;SDS011;57491;42.694;23.314;2023-04-25T13:43:19;5.50;;;3.40;;
70126;SDS011;57491;42.694;23.314;2023-04-25T13:45:47;4.85;;;2.55;;
70126;SDS011;57491;42.694;23.314;2023-04-25T13:48:14;4.40;;;2.67;;
70126;SDS011;57491;42.694;23.314;2023-04-25T13:50:41;4.87;;;2.57;;
70126;SDS011;57491;42.694;23.314;2023-04-25T13:53:08;6.63;;;3.20;;
70126;SDS011;57491;42.694;23.314;2023-04-25T13:55:36;6.13;;;3.40;;
70126;SDS011;57491;42.694;23.314;2023-04-25T13:58:04;3.65;;;2.70;;
70126;SDS011;57491;42.694;23.314;2023-04-25T14:00:35;8.38;;;4.63;;
70126;SDS011;57491;42.694;23.314;2023-04-25T14:03:04;7.03;;;3.58;;
70126;SDS011;57491;42.694;23.314;2023-04-25T14:05:33;3.63;;;2.30;;
70126;SDS011;57491;42.694;23.314;2023-04-25T14:08:04;3.28;;;2.42;;
70126;SDS011;57491;42.694;23.314;2023-04-25T14:10:32;2.70;;;1.50;;
70126;SDS011;57491;42.694;23.314;2023-04-25T14:13:01;1.77;;;1.60;;
70126;SDS011;57491;42.694;23.314;2023-04-25T14:15:29;3.13;;;2.40;;
70126;SDS011;57491;42.694;23.314;2023-04-25T14:17:59;2.78;;;2.10;;
70126;SDS011;57491;42.694;23.314;2023-04-25T14:20:27;2.13;;;1.38;;
70126;SDS011;57491;42.694;23.314;2023-04-25T14:22:55;2.08;;;1.23;;
70126;SDS011;57491;42.694;23.314;2023-04-25T14:27:50;2.25;;;2.03;;
70126;SDS011;57491;42.694;23.314;2023-04-25T14:30:17;4.65;;;1.92;;
70126;SDS011;57491;42.694;23.314;2023-04-25T14:32:45;4.05;;;1.92;;
70126;SDS011;57491;42.694;23.314;2023-04-25T14:35:15;1.95;;;1.60;;
70126;SDS011;57491;42.694;23.314;2023-04-25T14:37:42;2.58;;;1.40;;
70126;SDS011;57491;42.694;23.314;2023-04-25T14:40:09;3.47;;;2.00;;
70126;SDS011;57491;42.694;23.314;2023-04-25T14:42:38;3.38;;;2.17;;
70126;SDS011;57491;42.694;23.314;2023-04-25T14:45:06;3.90;;;1.65;;
70126;SDS011;57491;42.694;23.314;2023-04-25T14:47:35;3.92;;;1.95;;
70126;SDS011;57491;42.694;23.314;2023-04-25T14:50:02;4.22;;;2.63;;
70126;SDS011;57491;42.694;23.314;2023-04-25T14:52:32;1.92;;;1.58;;
70126;SDS011;57491;42.694;23.314;2023-04-25T14:54:59;4.82;;;2.35;;
70126;SDS011;57491;42.694;23.314;2023-04-25T14:57:30;5.38;;;3.15;;
70126;SDS011;57491;42.694;23.314;2023-04-25T14:59:57;2.90;;;2.50;;
70126;SDS011;57491;42.694;23.314;2023-04-25T15:02:25;3.75;;;2.85;;
70126;SDS011;57491;42.694;23.314;2023-04-25T15:04:52;3.03;;;2.55;;
70126;SDS011;57491;42.694;23.314;2023-04-25T15:07:20;3.80;;;3.05;;
70126;SDS011;57491;42.694;23.314;2023-04-25T15:09:48;4.35;;;3.95;;
70126;SDS011;57491;42.694;23.314;2023-04-25T15:12:16;4.07;;;3.42;;
70126;SDS011;57491;42.694;23.314;2023-04-25T15:14:43;4.28;;;2.67;;